Time;durP1;ratioP1;P1;durP2;ratioP2;P2;SDS_P1;SDS_P2;PMS_P1;PMS_P2;Temp;Humidity;BMP_temperature;BMP_pressure;BME280_temperature;BME280_humidity;BME280_pressure;Samples;Min_cycle;Max_cycle;Signal;HPM_P1;HPM_P2
2020/12/04 00:02:01;;;;;;;9.15;6.20;;;3.70;99.90;;;;;;4993451;28;20022;-58
2020/12/04 00:04:27;;;;;;;9.73;5.63;;;3.70;99.90;;;;;;4992603;28;20073;-60
2020/12/04 00:06:52;;;;;;;10.43;6.15;;;3.80;99.90;;;;;;4993811;28;20022;-62
2020/12/04 00:09:18;;;;;;;10.63;6.00;;;3.80;99.90;;;;;;5000975;28;20026;-61
2020/12/04 00:11:43;;;;;;;8.60;5.65;;;3.80;99.90;;;;;;4991594;28;20034;-59
2020/12/04 00:14:09;;;;;;;9.43;5.82;;;3.80;99.90;;;;;;4994970;28;20380;-62
2020/12/04 00:16:34;;;;;;;10.27;6.03;;;3.80;99.90;;;;;;4996405;28;20026;-60
2020/12/04 00:19:00;;;;;;;11.05;6.70;;;3.80;99.90;;;;;;5003403;28;20112;-59
2020/12/04 00:21:25;;;;;;;10.13;5.97;;;3.80;99.90;;;;;;4987462;28;20032;-62
2020/12/04 00:23:51;;;;;;;11.43;6.80;;;3.80;99.90;;;;;;4999747;28;20053;-62
2020/12/04 00:26:16;;;;;;;10.77;6.57;;;3.80;99.90;;;;;;4991760;28;20112;-62
2020/12/04 00:28:42;;;;;;;10.30;5.80;;;3.80;99.90;;;;;;4996460;28;20068;-62
2020/12/04 00:31:07;;;;;;;11.00;5.93;;;3.80;99.90;;;;;;5007015;28;20037;-60
2020/12/04 00:33:33;;;;;;;10.55;6.20;;;3.80;99.90;;;;;;5001266;28;20030;-60
2020/12/04 00:35:58;;;;;;;8.80;6.30;;;3.80;99.90;;;;;;5006322;28;20028;-62
2020/12/04 00:38:24;;;;;;;9.95;5.85;;;3.80;99.90;;;;;;5004085;28;20024;-56
2020/12/04 00:40:50;;;;;;;8.90;6.03;;;3.80;99.90;;;;;;4984441;28;20065;-61
2020/12/04 00:43:15;;;;;;;11.05;6.20;;;3.80;99.90;;;;;;4986903;28;20050;-61
2020/12/04 00:45:41;;;;;;;10.48;6.10;;;3.80;99.90;;;;;;4990266;28;20503;-62
2020/12/04 00:48:06;;;;;;;8.65;5.90;;;3.80;99.90;;;;;;4991508;28;20038;-59
2020/12/04 00:50:32;;;;;;;9.60;6.55;;;3.80;99.90;;;;;;4999339;28;20038;-62
2020/12/04 00:52:57;;;;;;;9.57;6.10;;;3.70;99.90;;;;;;4997765;28;20036;-61
2020/12/04 00:55:23;;;;;;;9.88;5.90;;;3.80;99.90;;;;;;5002827;28;20109;-62
2020/12/04 00:57:48;;;;;;;12.38;6.43;;;3.80;99.90;;;;;;4999578;28;20108;-56
2020/12/04 01:00:14;;;;;;;11.70;6.68;;;3.70;99.90;;;;;;5005219;28;20295;-62
2020/12/04 01:02:39;;;;;;;11.80;6.68;;;3.80;99.90;;;;;;5000774;28;20026;-62
2020/12/04 01:05:05;;;;;;;8.85;6.13;;;3.80;99.90;;;;;;5004093;28;20037;-61
2020/12/04 01:07:31;;;;;;;13.32;7.07;;;3.70;99.90;;;;;;5001107;28;20034;-60
2020/12/04 01:09:56;;;;;;;12.20;7.25;;;3.70;99.90;;;;;;4997577;28;20080;-61
2020/12/04 01:12:22;;;;;;;9.98;6.53;;;3.70;99.90;;;;;;4991579;28;20073;-57
2020/12/04 01:14:48;;;;;;;11.50;6.30;;;3.70;99.90;;;;;;4997889;28;20041;-60
2020/12/04 01:17:14;;;;;;;9.82;6.57;;;3.60;99.90;;;;;;4994741;28;20029;-62
2020/12/04 01:19:40;;;;;;;9.13;6.00;;;3.60;99.90;;;;;;4993368;28;20027;-62
2020/12/04 01:22:06;;;;;;;11.77;6.55;;;3.60;99.90;;;;;;4996256;28;20028;-61
2020/12/04 01:24:31;;;;;;;13.20;6.95;;;3.60;99.90;;;;;;4991594;28;20026;-61
2020/12/04 01:26:57;;;;;;;10.82;6.78;;;3.60;99.90;;;;;;4998156;28;20188;-60
2020/12/04 01:29:22;;;;;;;11.98;7.10;;;3.60;99.90;;;;;;5001695;28;20057;-60
2020/12/04 01:31:48;;;;;;;12.52;7.35;;;3.60;99.90;;;;;;5003301;28;20032;-62
2020/12/04 01:34:14;;;;;;;13.75;6.90;;;3.60;99.90;;;;;;4993647;28;20487;-60
2020/12/04 01:36:40;;;;;;;11.27;6.43;;;3.60;99.90;;;;;;4996370;28;20030;-62
2020/12/04 01:39:06;;;;;;;10.05;6.97;;;3.60;99.90;;;;;;4989261;28;20033;-61
2020/12/04 01:41:33;;;;;;;14.02;6.60;;;3.60;99.90;;;;;;4996760;28;20045;-61
2020/12/04 01:43:59;;;;;;;10.13;6.50;;;3.60;99.90;;;;;;4995161;28;20069;-61
2020/12/04 01:46:24;;;;;;;12.88;7.32;;;3.60;99.90;;;;;;4994894;28;20061;-57
2020/12/04 01:48:50;;;;;;;12.65;7.75;;;3.60;99.90;;;;;;4993607;28;20638;-61
2020/12/04 01:51:17;;;;;;;12.82;7.40;;;3.60;99.90;;;;;;4994913;28;20058;-61
2020/12/04 01:53:44;;;;;;;11.23;7.20;;;3.50;99.90;;;;;;4989578;28;20026;-61
2020/12/04 01:56:11;;;;;;;12.90;7.13;;;3.50;99.90;;;;;;5007732;28;20384;-60
2020/12/04 01:58:36;;;;;;;10.25;7.43;;;3.50;99.90;;;;;;4997336;28;20027;-60
2020/12/04 02:01:03;;;;;;;15.27;7.68;;;3.50;99.90;;;;;;5005951;28;20026;-62
2020/12/04 02:03:29;;;;;;;10.25;6.85;;;3.50;99.90;;;;;;4998027;28;20025;-60
2020/12/04 02:05:58;;;;;;;12.05;6.78;;;3.50;99.90;;;;;;5006350;28;20092;-58
2020/12/04 02:08:29;;;;;;;12.95;7.70;;;3.50;99.90;;;;;;5003489;28;20145;-58
2020/12/04 02:11:18;;;;;;;14.57;8.15;;;3.50;99.90;;;;;;4995027;28;20483;-61
2020/12/04 02:13:45;;;;;;;11.10;6.93;;;3.50;99.90;;;;;;5004811;28;20030;-61
2020/12/04 02:16:22;;;;;;;11.88;6.68;;;3.50;99.90;;;;;;5001645;28;20031;-61
2020/12/04 02:18:48;;;;;;;15.52;6.72;;;3.50;99.90;;;;;;5001900;28;20502;-61
2020/12/04 02:21:14;;;;;;;9.93;6.47;;;3.50;99.90;;;;;;4996166;28;20416;-61
2020/12/04 02:23:44;;;;;;;13.88;7.50;;;3.40;99.90;;;;;;4996979;28;20101;-63
2020/12/04 02:26:12;;;;;;;11.10;6.88;;;3.40;99.90;;;;;;4986951;28;20113;-62
2020/12/04 02:28:38;;;;;;;13.93;7.22;;;3.40;99.90;;;;;;4992535;28;20631;-62
2020/12/04 02:31:05;;;;;;;18.02;7.43;;;3.40;99.90;;;;;;5002047;28;20022;-62
2020/12/04 02:33:32;;;;;;;11.82;7.45;;;3.40;99.90;;;;;;5002041;28;20079;-61
2020/12/04 02:35:58;;;;;;;11.68;7.07;;;3.40;99.90;;;;;;5004736;28;20059;-61
2020/12/04 02:38:25;;;;;;;12.13;7.15;;;3.40;99.90;;;;;;4998395;28;20022;-62
2020/12/04 02:40:52;;;;;;;13.32;7.57;;;3.40;99.90;;;;;;5005619;28;20554;-61
2020/12/04 02:43:18;;;;;;;11.15;6.97;;;3.40;99.90;;;;;;4997247;28;20484;-61
2020/12/04 02:45:44;;;;;;;11.68;8.02;;;3.40;99.90;;;;;;5007985;28;20023;-60
2020/12/04 02:48:10;;;;;;;13.25;7.93;;;3.40;99.90;;;;;;4997544;28;20018;-61
2020/12/04 02:50:36;;;;;;;11.85;7.50;;;3.40;99.90;;;;;;5004085;28;20035;-60
2020/12/04 02:53:02;;;;;;;14.20;7.97;;;3.40;99.90;;;;;;5002588;28;20526;-61
2020/12/04 02:55:28;;;;;;;11.00;6.93;;;3.40;99.90;;;;;;4997605;28;20396;-61
2020/12/04 02:57:53;;;;;;;11.50;7.25;;;3.40;99.90;;;;;;4998237;28;20109;-62
2020/12/04 03:00:19;;;;;;;12.38;7.85;;;3.50;99.90;;;;;;5001395;28;20463;-61
2020/12/04 03:02:45;;;;;;;11.00;6.80;;;3.50;99.90;;;;;;4998331;28;20049;-59
2020/12/04 03:05:11;;;;;;;11.80;6.78;;;3.50;99.90;;;;;;5004397;28;20045;-62
2020/12/04 03:07:37;;;;;;;10.32;6.72;;;3.50;99.90;;;;;;5002309;28;20029;-60
2020/12/04 03:10:06;;;;;;;11.73;7.43;;;3.50;99.90;;;;;;5004859;28;20048;-60
2020/12/04 03:12:33;;;;;;;12.85;7.72;;;3.50;99.90;;;;;;4998051;28;20507;-61
2020/12/04 03:15:01;;;;;;;10.60;6.45;;;3.50;99.90;;;;;;5005580;28;20026;-61
2020/12/04 03:17:30;;;;;;;11.35;6.72;;;3.50;99.90;;;;;;4997621;28;20377;-55
2020/12/04 03:19:56;;;;;;;11.82;7.53;;;3.40;99.90;;;;;;5007662;28;20080;-61
2020/12/04 03:22:23;;;;;;;10.07;6.70;;;3.40;99.90;;;;;;4996252;28;20029;-63
2020/12/04 03:24:48;;;;;;;11.43;7.15;;;3.40;99.90;;;;;;5001469;28;20037;-62
2020/12/04 03:27:14;;;;;;;10.82;6.88;;;3.40;99.90;;;;;;4987128;28;20034;-61
2020/12/04 03:29:40;;;;;;;10.27;6.45;;;3.40;99.90;;;;;;5000373;28;20483;-63
2020/12/04 03:32:05;;;;;;;11.45;7.57;;;3.40;99.90;;;;;;5003061;28;20072;-62
2020/12/04 03:34:31;;;;;;;12.40;7.03;;;3.40;99.90;;;;;;5007611;28;20120;-61
2020/12/04 03:36:56;;;;;;;10.48;7.00;;;3.40;99.90;;;;;;4995016;28;20026;-61
2020/12/04 03:39:22;;;;;;;9.23;6.32;;;3.40;99.90;;;;;;5005859;28;20040;-61
2020/12/04 03:41:48;;;;;;;9.90;7.05;;;3.40;99.90;;;;;;4995935;28;20027;-61
2020/12/04 03:44:13;;;;;;;11.77;6.72;;;3.40;99.90;;;;;;5008671;28;20510;-60
2020/12/04 03:46:39;;;;;;;8.73;5.80;;;3.50;99.90;;;;;;4995132;28;20027;-61
2020/12/04 03:49:04;;;;;;;12.60;6.90;;;3.50;99.90;;;;;;5007740;28;20045;-60
2020/12/04 03:51:30;;;;;;;12.00;6.55;;;3.50;99.90;;;;;;4998487;28;21873;-60
2020/12/04 03:53:56;;;;;;;10.88;6.72;;;3.50;99.90;;;;;;5000805;28;20704;-61
2020/12/04 03:56:21;;;;;;;12.02;6.25;;;3.60;99.90;;;;;;4997778;28;20435;-60
2020/12/04 03:58:47;;;;;;;11.32;6.78;;;3.70;99.90;;;;;;5001245;28;20045;-63
2020/12/04 04:01:12;;;;;;;10.40;6.40;;;3.70;99.90;;;;;;5001793;28;20034;-62
2020/12/04 04:03:38;;;;;;;9.88;6.55;;;3.70;99.90;;;;;;5002310;28;20049;-61
2020/12/04 04:06:04;;;;;;;10.40;6.85;;;3.70;99.90;;;;;;5002505;28;20034;-61
2020/12/04 04:08:30;;;;;;;11.00;6.43;;;3.70;99.90;;;;;;5006441;28;20030;-62
2020/12/04 04:10:58;;;;;;;10.40;6.53;;;3.80;99.90;;;;;;4992957;28;20059;-60
2020/12/04 04:13:24;;;;;;;9.05;6.22;;;3.80;99.90;;;;;;4994637;28;20033;-62
2020/12/04 04:15:49;;;;;;;10.23;6.45;;;3.90;99.90;;;;;;4992414;28;20022;-61
2020/12/04 04:18:16;;;;;;;10.55;6.78;;;3.90;99.90;;;;;;5002331;28;20037;-61
2020/12/04 04:20:42;;;;;;;10.02;6.38;;;3.90;99.90;;;;;;4997330;28;20046;-60
2020/12/04 04:23:07;;;;;;;10.38;6.68;;;3.90;99.90;;;;;;5000310;28;20069;-60
2020/12/04 04:25:33;;;;;;;9.05;5.90;;;4.00;99.90;;;;;;4996640;28;20030;-61
2020/12/04 04:27:59;;;;;;;9.77;5.82;;;4.00;99.90;;;;;;4999635;28;20089;-60
2020/12/04 04:30:24;;;;;;;11.68;7.07;;;4.00;99.90;;;;;;5001449;28;20032;-60
2020/12/04 04:32:50;;;;;;;12.38;7.07;;;4.00;99.90;;;;;;4995587;28;20399;-60
2020/12/04 04:35:16;;;;;;;9.90;6.70;;;4.00;99.90;;;;;;4996729;28;20073;-61
2020/12/04 04:37:42;;;;;;;9.30;6.10;;;4.00;99.90;;;;;;5003298;28;20032;-62
2020/12/04 04:40:08;;;;;;;10.18;6.32;;;4.00;99.90;;;;;;4999521;28;20506;-61
2020/12/04 04:42:33;;;;;;;11.18;6.38;;;4.00;99.90;;;;;;5006082;28;20022;-61
2020/12/04 04:45:02;;;;;;;12.00;6.50;;;4.00;99.90;;;;;;4994105;28;20447;-60
2020/12/04 04:47:30;;;;;;;10.02;5.95;;;4.10;99.90;;;;;;5002792;28;20085;-53
2020/12/04 04:49:56;;;;;;;11.00;6.55;;;4.00;99.90;;;;;;5004883;28;20182;-58
2020/12/04 04:52:24;;;;;;;8.85;5.70;;;4.10;99.90;;;;;;5016016;28;20033;-62
2020/12/04 04:54:50;;;;;;;9.45;6.03;;;4.10;99.90;;;;;;4991725;28;20026;-59
2020/12/04 04:57:21;;;;;;;9.57;5.72;;;4.20;99.90;;;;;;5000563;28;20149;-60
2020/12/04 04:59:47;;;;;;;8.18;5.50;;;4.20;99.90;;;;;;5004826;28;20239;-62
2020/12/04 05:02:14;;;;;;;10.38;5.65;;;4.20;99.90;;;;;;5005533;28;20109;-62
2020/12/04 05:04:54;;;;;;;8.95;5.72;;;4.30;99.90;;;;;;4990852;28;20472;-62
2020/12/04 05:07:29;;;;;;;9.00;5.47;;;4.30;99.90;;;;;;4999760;28;20048;-62
2020/12/04 05:10:18;;;;;;;9.63;5.28;;;4.30;99.90;;;;;;4999462;28;20164;-60
2020/12/04 05:12:58;;;;;;;6.03;4.35;;;4.30;99.90;;;;;;4996321;28;20444;-62
2020/12/04 05:15:25;;;;;;;7.82;4.80;;;4.40;99.90;;;;;;4997985;28;20154;-61
2020/12/04 05:18:01;;;;;;;6.80;5.07;;;4.40;99.90;;;;;;5005382;28;20011;-56
2020/12/04 05:20:27;;;;;;;7.55;4.50;;;4.40;99.90;;;;;;5000114;28;20022;-61
2020/12/04 05:22:55;;;;;;;7.10;5.00;;;4.50;99.90;;;;;;5004256;28;20033;-61
2020/12/04 05:25:20;;;;;;;6.25;4.35;;;4.50;99.90;;;;;;5000661;28;20022;-60
2020/12/04 05:27:46;;;;;;;8.25;4.43;;;4.50;99.90;;;;;;5001263;28;20109;-63
2020/12/04 05:30:22;;;;;;;7.68;5.03;;;4.60;99.90;;;;;;5001826;28;20041;-60
2020/12/04 05:32:58;;;;;;;5.47;3.88;;;4.60;99.90;;;;;;4977582;28;20068;-63
2020/12/04 05:35:23;;;;;;;8.00;4.93;;;4.60;99.90;;;;;;4980275;28;20026;-61
2020/12/04 05:37:49;;;;;;;8.93;5.15;;;4.60;99.90;;;;;;5015603;28;20053;-62
2020/12/04 05:40:23;;;;;;;5.68;3.70;;;4.60;99.90;;;;;;5018521;28;20041;-62
2020/12/04 05:42:48;;;;;;;;;;;4.60;99.90;;;;;;5010856;28;20014;-60
2020/12/04 05:45:14;;;;;;;5.90;3.80;;;4.70;99.90;;;;;;5010374;28;19912;-62
2020/12/04 05:47:42;;;;;;;10.02;6.18;;;4.60;99.90;;;;;;4962581;28;20033;-59
2020/12/04 05:50:10;;;;;;;4.93;3.78;;;4.70;99.90;;;;;;5008732;28;20021;-59
2020/12/04 05:52:37;;;;;;;5.72;3.17;;;4.70;99.90;;;;;;5007692;28;20026;-58
2020/12/04 05:55:04;;;;;;;7.28;4.03;;;4.80;99.90;;;;;;5012245;28;20034;-58
2020/12/04 05:57:57;;;;;;;6.10;3.63;;;4.80;99.90;;;;;;5007447;28;20028;-60
2020/12/04 06:00:23;;;;;;;7.65;4.63;;;4.80;99.90;;;;;;5008642;28;20168;-60
2020/12/04 06:03:02;;;;;;;5.75;3.53;;;4.80;99.90;;;;;;5006910;28;20126;-61
2020/12/04 06:05:28;;;;;;;7.10;4.35;;;4.90;99.90;;;;;;5007059;28;20022;-58
2020/12/04 06:08:06;;;;;;;4.43;3.03;;;4.90;99.90;;;;;;5006874;28;20025;-61
2020/12/04 06:10:33;;;;;;;6.55;3.58;;;5.00;99.90;;;;;;5008228;28;20045;-60
2020/12/04 06:13:00;;;;;;;8.35;4.45;;;5.00;99.90;;;;;;5020901;28;20042;-62
2020/12/04 06:15:30;;;;;;;4.72;3.15;;;5.00;99.90;;;;;;5008434;28;20025;-61
2020/12/04 06:18:11;;;;;;;4.35;3.08;;;5.00;99.90;;;;;;5006642;28;20067;-59
2020/12/04 06:20:46;;;;;;;4.63;2.63;;;5.00;99.90;;;;;;5007800;28;20034;-62
2020/12/04 06:23:13;;;;;;;5.82;3.00;;;5.10;99.90;;;;;;5004743;28;20034;-60
2020/12/04 06:25:55;;;;;;;4.75;3.25;;;5.10;99.90;;;;;;5011988;28;20022;-59
2020/12/04 06:28:36;;;;;;;4.15;2.65;;;5.20;99.90;;;;;;5008031;28;20080;-61
2020/12/04 06:31:08;;;;;;;4.75;2.88;;;5.20;99.90;;;;;;5007565;28;20472;-61
2020/12/04 06:33:48;;;;;;;5.45;3.25;;;5.20;99.90;;;;;;4983800;28;20042;-57
2020/12/04 06:36:34;;;;;;;8.52;4.85;;;5.30;99.90;;;;;;4988933;28;20029;-60
2020/12/04 06:39:02;;;;;;;5.60;3.28;;;5.30;99.90;;;;;;4990861;28;20037;-63
2020/12/04 06:41:43;;;;;;;6.65;2.85;;;5.30;99.90;;;;;;4988717;28;20088;-62
2020/12/04 06:44:20;;;;;;;7.03;3.42;;;5.30;99.90;;;;;;4990080;28;20041;-63
2020/12/04 06:46:48;;;;;;;6.85;3.03;;;5.30;99.90;;;;;;4987968;28;21232;-62
2020/12/04 06:52:04;;;;;;;6.05;3.17;;;5.40;99.90;;;;;;4988737;28;20040;-62
2020/12/04 06:54:32;;;;;;;3.63;2.35;;;5.40;99.90;;;;;;4995014;28;20034;-61
2020/12/04 06:56:58;;;;;;;3.55;2.42;;;5.40;99.90;;;;;;4990137;28;20030;-62
2020/12/04 06:59:29;;;;;;;3.28;2.38;;;5.40;99.90;;;;;;4989411;28;20026;-61
2020/12/04 07:02:03;;;;;;;4.85;3.05;;;5.50;99.90;;;;;;4985655;28;20576;-62
2020/12/04 07:04:30;;;;;;;5.65;3.05;;;5.50;99.90;;;;;;4988371;28;20556;-62
2020/12/04 07:07:07;;;;;;;27.77;11.52;;;5.50;99.90;;;;;;4997920;28;20475;-61
2020/12/04 07:09:33;;;;;;;7.25;4.07;;;5.50;99.90;;;;;;4986269;28;20038;-59
2020/12/04 07:12:01;;;;;;;5.53;3.22;;;5.50;99.90;;;;;;5000142;28;20018;-62
2020/12/04 07:14:27;;;;;;;7.90;3.60;;;5.60;99.90;;;;;;4988203;28;20036;-62
2020/12/04 07:16:54;;;;;;;3.30;2.38;;;5.60;99.90;;;;;;5000703;28;20447;-61
2020/12/04 07:19:20;;;;;;;7.15;4.28;;;5.60;99.90;;;;;;4989987;28;20147;-60
2020/12/04 07:21:46;;;;;;;4.20;2.92;;;5.60;99.90;;;;;;5001478;28;20480;-61
2020/12/04 07:24:12;;;;;;;3.28;2.22;;;5.60;99.90;;;;;;4994392;28;20042;-62
2020/12/04 07:26:43;;;;;;;3.30;2.20;;;5.60;99.90;;;;;;4988317;28;20098;-62
2020/12/04 07:29:09;;;;;;;5.47;2.60;;;5.60;99.90;;;;;;4987201;28;20037;-62
2020/12/04 07:31:35;;;;;;;2.80;2.08;;;5.70;99.90;;;;;;4995870;28;20598;-59
2020/12/04 07:34:02;;;;;;;3.40;2.30;;;5.70;99.90;;;;;;4984317;28;20054;-62
2020/12/04 07:36:29;;;;;;;2.83;1.77;;;5.70;99.90;;;;;;4997330;28;20122;-62
2020/12/04 07:38:57;;;;;;;6.15;2.30;;;5.70;99.90;;;;;;4994591;28;20076;-62
2020/12/04 07:41:24;;;;;;;5.65;2.67;;;5.70;99.90;;;;;;4993995;28;20553;-61
2020/12/04 07:43:49;;;;;;;4.43;2.28;;;5.70;99.90;;;;;;5001011;28;20399;-61
2020/12/04 07:46:19;;;;;;;2.20;1.70;;;5.70;99.90;;;;;;4994958;28;20115;-60
2020/12/04 07:49:00;;;;;;;3.72;2.30;;;5.70;99.90;;;;;;4990368;28;20034;-60
2020/12/04 07:51:27;;;;;;;4.30;1.90;;;5.70;99.90;;;;;;4996107;28;20088;-62
2020/12/04 07:53:56;;;;;;;2.92;1.48;;;5.70;99.90;;;;;;4987872;28;20042;-63
2020/12/04 07:56:26;;;;;;;3.13;1.80;;;5.70;99.90;;;;;;5000634;28;20033;-61
2020/12/04 07:59:01;;;;;;;2.53;1.83;;;5.70;99.90;;;;;;4989395;28;20030;-62
2020/12/04 08:01:28;;;;;;;2.42;1.50;;;5.70;99.90;;;;;;5000304;28;20114;-61
2020/12/04 08:03:54;;;;;;;3.22;1.70;;;5.80;99.90;;;;;;4998895;28;20045;-61
2020/12/04 08:06:26;;;;;;;2.22;1.38;;;5.80;99.90;;;;;;4990015;28;20028;-62
2020/12/04 08:09:12;;;;;;;3.58;2.08;;;5.80;99.90;;;;;;4999811;28;20038;-61
2020/12/04 08:11:50;;;;;;;5.05;2.05;;;5.80;99.90;;;;;;4994610;28;20521;-59
2020/12/04 08:14:25;;;;;;;4.72;1.92;;;5.90;99.90;;;;;;5005714;28;20088;-61
2020/12/04 08:16:59;;;;;;;3.58;1.75;;;5.90;99.90;;;;;;5004508;28;20072;-63
2020/12/04 08:19:29;;;;;;;4.45;1.77;;;6.00;99.90;;;;;;5004701;28;20026;-63
2020/12/04 08:21:55;;;;;;;2.20;1.60;;;6.10;99.90;;;;;;5013631;28;20040;-62
2020/12/04 08:24:29;;;;;;;2.65;1.33;;;6.10;99.90;;;;;;5012025;28;20034;-62
2020/12/04 08:27:14;;;;;;;2.10;1.75;;;6.10;99.90;;;;;;5003930;28;20030;-62
2020/12/04 08:29:42;;;;;;;3.08;1.83;;;6.20;99.90;;;;;;5008272;28;20037;-63
2020/12/04 08:32:20;;;;;;;2.38;1.83;;;6.20;99.90;;;;;;4995359;28;20534;-63
2020/12/04 08:34:47;;;;;;;2.95;1.50;;;6.30;99.90;;;;;;5011151;28;20026;-62
2020/12/04 08:37:13;;;;;;;2.38;1.50;;;6.30;99.90;;;;;;5005665;28;20084;-62
2020/12/04 08:39:42;;;;;;;2.15;1.42;;;6.30;99.90;;;;;;5018360;28;20108;-61
2020/12/04 08:42:17;;;;;;;2.42;1.45;;;6.30;99.90;;;;;;5004802;28;20117;-62
2020/12/04 08:44:53;;;;;;;2.25;1.58;;;6.40;99.90;;;;;;5008557;28;20037;-60
2020/12/04 08:47:42;;;;;;;4.63;1.50;;;6.50;99.90;;;;;;5006913;28;20030;-62
2020/12/04 08:50:16;;;;;;;4.68;1.48;;;6.50;99.90;;;;;;5006620;28;20033;-60
2020/12/04 08:52:56;;;;;;;2.28;1.30;;;6.50;99.90;;;;;;5004028;28;20101;-61
2020/12/04 08:55:24;;;;;;;5.82;1.38;;;6.60;99.90;;;;;;5010805;28;20036;-62
2020/12/04 08:57:53;;;;;;;3.40;1.70;;;6.60;99.90;;;;;;5011583;28;20440;-63
2020/12/04 09:00:21;;;;;;;4.78;1.85;;;6.60;99.90;;;;;;5007198;28;20029;-60
2020/12/04 09:02:47;;;;;;;4.28;2.30;;;6.60;99.90;;;;;;5005732;28;20022;-60
2020/12/04 09:05:17;;;;;;;4.40;2.55;;;6.60;99.90;;;;;;5011093;28;20037;-60
2020/12/04 09:07:44;;;;;;;2.75;1.90;;;6.60;99.90;;;;;;5011105;28;20040;-60
2020/12/04 09:10:12;;;;;;;3.28;1.45;;;6.50;99.90;;;;;;5011729;28;20117;-61
2020/12/04 09:12:38;;;;;;;3.45;1.58;;;6.50;99.90;;;;;;5010888;28;20088;-60
2020/12/04 09:15:06;;;;;;;2.67;1.63;;;6.60;99.90;;;;;;5003509;28;20514;-60
2020/12/04 09:17:35;;;;;;;1.73;1.33;;;6.60;99.90;;;;;;5005051;28;20029;-59
2020/12/04 09:20:01;;;;;;;2.40;1.55;;;6.70;99.90;;;;;;5009487;28;20033;-61
2020/12/04 09:22:26;;;;;;;2.45;1.40;;;6.70;99.90;;;;;;5011387;28;20021;-61
2020/12/04 09:24:52;;;;;;;4.82;1.40;;;6.70;99.90;;;;;;5010892;28;20068;-62
2020/12/04 09:27:18;;;;;;;2.20;1.33;;;6.80;99.90;;;;;;5010699;28;20033;-61
2020/12/04 09:29:44;;;;;;;1.83;1.35;;;7.00;99.90;;;;;;5009408;28;20017;-59
2020/12/04 09:32:15;;;;;;;3.15;1.55;;;7.30;99.90;;;;;;4968472;28;20084;-61
2020/12/04 09:34:43;;;;;;;3.28;1.10;;;7.50;99.90;;;;;;5008329;28;20022;-62
2020/12/04 09:37:18;;;;;;;2.92;1.70;;;7.60;99.90;;;;;;5008951;28;20029;-61
2020/12/04 09:39:46;;;;;;;2.78;1.75;;;7.60;99.90;;;;;;5008731;28;20038;-61
2020/12/04 09:42:13;;;;;;;2.05;1.38;;;7.70;99.90;;;;;;5013045;28;20033;-60
2020/12/04 09:44:40;;;;;;;2.97;1.50;;;7.80;99.90;;;;;;5003766;28;20071;-60
2020/12/04 09:47:05;;;;;;;4.50;1.48;;;7.90;99.90;;;;;;5008265;28;20025;-61
2020/12/04 09:49:31;;;;;;;2.25;1.33;;;7.90;99.90;;;;;;5003872;28;20029;-60
2020/12/04 09:51:58;;;;;;;2.10;1.23;;;7.90;99.90;;;;;;5021111;28;20711;-59
2020/12/04 09:54:28;;;;;;;3.08;1.52;;;7.80;99.90;;;;;;5009117;28;20034;-60
2020/12/04 09:56:55;;;;;;;1.67;1.00;;;7.80;99.90;;;;;;5015176;28;20153;-59
2020/12/04 09:59:22;;;;;;;1.50;0.90;;;7.70;99.90;;;;;;5007899;28;20092;-61
2020/12/04 10:01:52;;;;;;;4.40;1.33;;;7.70;99.90;;;;;;5021710;28;20040;-61
2020/12/04 10:04:18;;;;;;;2.28;1.10;;;7.70;99.90;;;;;;4997315;28;20052;-59
2020/12/04 10:06:47;;;;;;;3.22;1.48;;;7.80;99.90;;;;;;5023695;28;20421;-59
2020/12/04 10:09:14;;;;;;;1.60;1.20;;;7.80;99.90;;;;;;5005720;28;20060;-60
2020/12/04 10:11:40;;;;;;;3.35;1.35;;;7.80;99.90;;;;;;5010873;28;20589;-59
2020/12/04 10:14:06;;;;;;;1.23;1.10;;;7.80;99.90;;;;;;5006409;28;20545;-60
2020/12/04 10:16:32;;;;;;;1.92;1.23;;;7.70;99.90;;;;;;5006967;28;20134;-58
2020/12/04 10:18:58;;;;;;;1.23;0.95;;;7.70;99.90;;;;;;5005655;28;20040;-61
2020/12/04 10:21:31;;;;;;;3.80;1.10;;;7.70;99.90;;;;;;5007417;28;20033;-60
2020/12/04 10:23:56;;;;;;;1.77;1.20;;;7.70;99.90;;;;;;5008638;28;20030;-60
2020/12/04 10:26:22;;;;;;;1.58;1.00;;;7.70;99.90;;;;;;5009675;28;20419;-60
2020/12/04 10:28:48;;;;;;;1.70;1.00;;;7.70;99.90;;;;;;5008090;28;20408;-60
2020/12/04 10:31:14;;;;;;;2.28;1.42;;;7.70;99.90;;;;;;5009218;28;20037;-61
2020/12/04 10:33:40;;;;;;;1.77;1.08;;;7.70;99.90;;;;;;4971168;28;20548;-60
2020/12/04 10:36:05;;;;;;;2.97;1.50;;;7.60;99.90;;;;;;4991508;28;20026;-59
2020/12/04 10:38:31;;;;;;;5.15;2.35;;;7.70;99.90;;;;;;4988396;28;20283;-58
2020/12/04 10:40:58;;;;;;;3.58;2.05;;;7.70;99.90;;;;;;4990834;28;20030;-60
2020/12/04 10:43:24;;;;;;;2.05;1.15;;;7.80;99.90;;;;;;4988160;28;20033;-59
2020/12/04 10:45:51;;;;;;;2.05;1.05;;;7.90;99.90;;;;;;4990057;28;20518;-60
2020/12/04 10:48:16;;;;;;;4.90;1.00;;;7.90;99.90;;;;;;4984963;28;20528;-61
2020/12/04 10:50:44;;;;;;;3.25;1.08;;;7.90;99.90;;;;;;4990364;28;20030;-61
2020/12/04 10:53:10;;;;;;;1.90;1.40;;;7.90;99.90;;;;;;4988711;28;20500;-61
2020/12/04 10:55:36;;;;;;;2.10;1.13;;;8.00;99.90;;;;;;4986257;28;20383;-57
2020/12/04 10:58:01;;;;;;;3.92;1.70;;;8.10;99.90;;;;;;4989790;28;20029;-60
2020/12/04 11:00:27;;;;;;;3.47;1.70;;;8.20;99.90;;;;;;4986022;28;20044;-61
2020/12/04 11:02:57;;;;;;;6.05;3.45;;;8.30;99.90;;;;;;4984808;28;20031;-60
2020/12/04 11:05:34;;;;;;;3.20;1.30;;;8.50;99.90;;;;;;4989808;28;20041;-59
2020/12/04 11:07:59;;;;;;;2.45;1.55;;;8.70;99.90;;;;;;4988655;28;20041;-60
2020/12/04 11:10:25;;;;;;;1.98;1.25;;;8.80;99.90;;;;;;4984365;28;20026;-60
2020/12/04 11:12:51;;;;;;;7.47;2.60;;;8.90;99.90;;;;;;4987894;28;20041;-60
2020/12/04 11:15:16;;;;;;;3.90;2.55;;;9.00;99.90;;;;;;4991369;28;20057;-62
2020/12/04 11:17:42;;;;;;;5.70;3.00;;;9.00;99.90;;;;;;4986143;28;20033;-60
2020/12/04 11:20:08;;;;;;;5.50;3.53;;;9.10;99.90;;;;;;4994503;28;20480;-61
2020/12/04 11:22:34;;;;;;;2.88;1.50;;;9.00;99.90;;;;;;4983820;28;20046;-61
2020/12/04 11:25:03;;;;;;;1.83;1.13;;;9.00;99.90;;;;;;4986592;28;20518;-60
2020/12/04 11:27:28;;;;;;;1.50;1.13;;;9.00;99.90;;;;;;4988353;28;20048;-62
2020/12/04 11:29:54;;;;;;;2.58;1.70;;;9.00;99.90;;;;;;4987652;28;20030;-59
2020/12/04 11:32:19;;;;;;;1.52;1.20;;;9.10;99.90;;;;;;4968960;28;20030;-61
2020/12/04 11:34:45;;;;;;;1.80;0.90;;;9.20;99.90;;;;;;4987394;28;20396;-61
2020/12/04 11:37:11;;;;;;;4.45;1.75;;;9.10;99.90;;;;;;4986620;28;20030;-59
2020/12/04 11:39:41;;;;;;;2.63;1.35;;;9.10;99.90;;;;;;4986039;28;20038;-61
2020/12/04 11:42:08;;;;;;;2.03;1.20;;;9.00;99.90;;;;;;4985986;28;20014;-57
2020/12/04 11:44:34;;;;;;;6.45;2.90;;;8.80;99.90;;;;;;4984039;28;20026;-60
2020/12/04 11:47:00;;;;;;;7.07;2.35;;;8.70;99.90;;;;;;4987858;28;20037;-61
2020/12/04 11:49:26;;;;;;;1.75;1.10;;;8.60;99.90;;;;;;4988339;28;20041;-60
2020/12/04 11:51:52;;;;;;;3.50;1.80;;;8.70;99.90;;;;;;4988403;28;20026;-61
2020/12/04 11:54:17;;;;;;;7.65;3.78;;;8.60;99.90;;;;;;4987351;28;20114;-59
2020/12/04 11:56:52;;;;;;;2.63;1.33;;;8.50;99.90;;;;;;4987154;28;20019;-61
2020/12/04 11:59:18;;;;;;;4.15;1.83;;;8.50;99.90;;;;;;4985594;28;20034;-61
2020/12/04 12:01:44;;;;;;;3.55;1.13;;;8.50;99.90;;;;;;5000059;28;20020;-61
2020/12/04 12:04:14;;;;;;;5.47;2.08;;;8.40;99.90;;;;;;4988452;28;20023;-61
2020/12/04 12:06:40;;;;;;;3.92;1.65;;;8.40;99.90;;;;;;4981073;28;20025;-61
2020/12/04 12:09:05;;;;;;;1.98;1.20;;;8.30;99.90;;;;;;4982872;28;20034;-59
2020/12/04 12:11:31;;;;;;;2.05;1.30;;;8.30;99.90;;;;;;4994148;28;20463;-60
2020/12/04 12:13:56;;;;;;;5.20;1.63;;;8.30;99.90;;;;;;4997480;28;20030;-60
2020/12/04 12:16:22;;;;;;;2.83;1.38;;;8.30;99.90;;;;;;4997577;28;20033;-60
2020/12/04 12:18:48;;;;;;;2.05;1.38;;;8.30;99.90;;;;;;4986099;28;20105;-60
2020/12/04 12:21:13;;;;;;;2.22;1.13;;;8.30;99.90;;;;;;4989218;28;20036;-61
2020/12/04 12:23:39;;;;;;;3.92;1.38;;;8.30;99.90;;;;;;4988014;28;20498;-60
2020/12/04 12:26:06;;;;;;;1.75;1.33;;;8.30;99.90;;;;;;4986531;28;20019;-61
2020/12/04 12:28:32;;;;;;;3.40;1.50;;;8.30;99.90;;;;;;4983188;28;20062;-60
2020/12/04 12:30:58;;;;;;;2.00;1.13;;;8.20;99.90;;;;;;5001769;28;20057;-60
2020/12/04 12:33:24;;;;;;;2.55;1.30;;;8.20;99.90;;;;;;4982025;28;20422;-61
2020/12/04 12:35:51;;;;;;;3.78;1.30;;;8.20;99.90;;;;;;5013399;28;20044;-59
2020/12/04 12:38:16;;;;;;;7.38;3.92;;;8.30;99.90;;;;;;4996462;28;20038;-60
2020/12/04 12:40:42;;;;;;;82.85;41.92;;;8.40;99.90;;;;;;5007037;28;20030;-59
2020/12/04 12:43:07;;;;;;;35.75;18.90;;;8.40;99.90;;;;;;5005121;28;20030;-60
2020/12/04 12:45:33;;;;;;;5.00;2.47;;;8.40;99.90;;;;;;5006741;28;20615;-60
2020/12/04 12:47:59;;;;;;;3.25;1.77;;;8.40;99.90;;;;;;5007975;28;20031;-61
2020/12/04 12:50:26;;;;;;;2.67;1.65;;;8.50;99.90;;;;;;5013549;28;20025;-60
2020/12/04 12:52:52;;;;;;;2.72;2.15;;;8.50;99.90;;;;;;5012916;28;21386;-61
2020/12/04 12:55:18;;;;;;;5.35;4.47;;;8.50;99.90;;;;;;5013877;28;20033;-59
2020/12/04 12:57:43;;;;;;;3.45;2.17;;;8.50;99.90;;;;;;5015179;28;20113;-61
2020/12/04 13:00:09;;;;;;;10.10;6.20;;;8.50;99.90;;;;;;5018084;28;20064;-59